createdAt,value
2022-11-16T00:02:13.800Z,8.20
2022-11-16T00:04:42.230Z,8.20
2022-11-16T00:07:10.587Z,8.20
2022-11-16T00:09:38.932Z,8.20
2022-11-16T00:12:08.870Z,8.20
2022-11-16T00:14:37.233Z,8.20
2022-11-16T00:17:05.561Z,8.20
2022-11-16T00:19:35.032Z,8.20
2022-11-16T00:22:03.161Z,8.20
2022-11-16T00:24:31.303Z,8.30
2022-11-16T00:26:59.333Z,8.20
2022-11-16T00:29:27.939Z,8.20
2022-11-16T00:31:56.030Z,8.20
2022-11-16T00:34:24.171Z,8.20
2022-11-16T00:36:53.925Z,8.20
2022-11-16T00:39:21.994Z,8.20
2022-11-16T00:41:50.116Z,8.30
2022-11-16T00:44:18.857Z,8.20
2022-11-16T00:46:46.936Z,8.20
2022-11-16T00:49:15.112Z,8.30
2022-11-16T00:51:43.222Z,8.20
2022-11-16T00:54:12.848Z,8.20
2022-11-16T00:56:41.140Z,8.20
2022-11-16T00:59:09.360Z,8.20
2022-11-16T01:01:37.734Z,8.20
2022-11-16T01:04:06.043Z,8.20
2022-11-16T01:06:34.068Z,8.20
2022-11-16T01:09:02.164Z,8.20
2022-11-16T01:11:49.204Z,8.20
2022-11-16T01:14:17.306Z,8.20
2022-11-16T01:16:45.748Z,8.10
2022-11-16T01:19:13.871Z,8.10
2022-11-16T01:21:41.947Z,8.10
2022-11-16T01:24:10.054Z,8.10
2022-11-16T01:26:39.483Z,8.10
2022-11-16T01:29:07.646Z,8.10
2022-11-16T01:31:36.048Z,8.10
2022-11-16T01:34:04.206Z,8.10
2022-11-16T01:36:32.309Z,8.10
2022-11-16T01:39:00.365Z,8.10
2022-11-16T01:41:28.567Z,8.10
2022-11-16T01:44:00.526Z,8.10
2022-11-16T01:46:29.203Z,8.10
2022-11-16T01:49:01.136Z,8.10
2022-11-16T01:51:29.202Z,8.10
2022-11-16T01:53:57.544Z,8.10
2022-11-16T01:56:25.674Z,8.10
2022-11-16T01:58:53.935Z,8.10
2022-11-16T02:01:23.446Z,8.10
2022-11-16T02:03:51.568Z,8.10
2022-11-16T02:06:33.853Z,8.10
2022-11-16T02:09:30.280Z,8.10
2022-11-16T02:12:06.863Z,8.10
2022-11-16T02:14:43.161Z,8.10
2022-11-16T02:17:17.934Z,8.10
2022-11-16T02:20:24.525Z,8.10
2022-11-16T02:23:03.522Z,8.10
2022-11-16T02:25:33.754Z,8.10
2022-11-16T02:28:12.972Z,8.10
2022-11-16T02:30:44.236Z,8.10
2022-11-16T02:33:13.915Z,8.10
2022-11-16T02:35:43.499Z,8.10
2022-11-16T02:38:12.808Z,8.10
2022-11-16T02:40:42.100Z,8.10
2022-11-16T02:43:11.002Z,8.10
2022-11-16T02:45:40.942Z,8.00
2022-11-16T02:48:14.150Z,8.10
2022-11-16T02:50:42.372Z,8.10
2022-11-16T02:53:10.448Z,8.10
2022-11-16T02:55:38.587Z,8.10
2022-11-16T02:58:07.296Z,8.10
2022-11-16T03:00:37.255Z,8.10
2022-11-16T03:03:11.610Z,8.10
2022-11-16T03:05:40.631Z,8.10
2022-11-16T03:08:14.536Z,8.10
2022-11-16T03:11:11.535Z,8.10
2022-11-16T03:13:39.720Z,8.10
2022-11-16T03:16:12.481Z,8.00
2022-11-16T03:18:42.287Z,8.10
2022-11-16T03:21:13.825Z,8.10
2022-11-16T03:23:41.890Z,8.10
2022-11-16T03:26:10.125Z,8.10
2022-11-16T03:28:40.802Z,8.10
2022-11-16T03:31:11.624Z,8.10
2022-11-16T03:33:44.251Z,8.10
2022-11-16T03:36:14.370Z,8.10
2022-11-16T03:38:42.600Z,8.10
2022-11-16T03:41:10.791Z,8.10
2022-11-16T03:43:38.875Z,8.10
2022-11-16T03:46:07.106Z,8.10
2022-11-16T03:48:36.498Z,8.10
2022-11-16T03:51:06.518Z,8.10
2022-11-16T03:53:34.731Z,8.10
2022-11-16T03:56:03.205Z,8.10
2022-11-16T03:58:31.529Z,8.10
2022-11-16T04:01:00.305Z,8.00
2022-11-16T04:03:28.475Z,8.10
2022-11-16T04:06:14.298Z,8.10
2022-11-16T04:09:00.980Z,8.10
2022-11-16T04:11:46.273Z,8.10
2022-11-16T04:14:32.325Z,8.10
2022-11-16T04:17:17.913Z,8.00
2022-11-16T04:20:03.343Z,8.10
2022-11-16T04:22:50.553Z,8.10
2022-11-16T04:25:21.454Z,8.10
2022-11-16T04:28:07.023Z,8.10
2022-11-16T04:30:48.937Z,8.10
2022-11-16T04:33:34.183Z,8.10
2022-11-16T04:36:20.797Z,8.10
2022-11-16T04:38:49.078Z,8.10
2022-11-16T04:41:32.373Z,8.10
2022-11-16T04:44:00.559Z,8.10
2022-11-16T04:46:46.060Z,8.10
2022-11-16T04:49:14.241Z,8.10
2022-11-16T04:51:42.624Z,8.10
2022-11-16T04:54:10.692Z,8.10
2022-11-16T04:56:40.240Z,8.10
2022-11-16T04:59:08.283Z,8.10
2022-11-16T05:01:53.910Z,8.10
2022-11-16T05:04:22.118Z,8.10
2022-11-16T05:06:50.254Z,8.10
2022-11-16T05:09:18.410Z,8.10
2022-11-16T05:11:47.826Z,8.10
2022-11-16T05:14:15.924Z,8.10
2022-11-16T05:16:44.007Z,8.00
2022-11-16T05:19:29.760Z,8.00
2022-11-16T05:21:57.872Z,8.10
2022-11-16T05:24:33.631Z,8.10
2022-11-16T05:27:03.526Z,8.10
2022-11-16T05:29:31.634Z,8.10
2022-11-16T05:31:59.857Z,8.10
2022-11-16T05:34:28.017Z,8.10
2022-11-16T05:36:56.313Z,8.10
2022-11-16T05:39:24.477Z,8.00
2022-11-16T05:41:52.567Z,8.10
2022-11-16T05:44:22.183Z,8.10
2022-11-16T05:46:50.226Z,8.10
2022-11-16T05:49:18.399Z,8.00
2022-11-16T05:51:46.861Z,8.00
2022-11-16T05:54:15.835Z,8.00
2022-11-16T05:56:44.184Z,8.00
2022-11-16T05:59:16.446Z,8.00
2022-11-16T06:01:46.246Z,8.10
2022-11-16T06:04:14.512Z,8.00
2022-11-16T06:06:42.625Z,8.00
2022-11-16T06:09:12.038Z,8.00
2022-11-16T06:11:40.096Z,8.10
2022-11-16T06:14:08.286Z,8.00
2022-11-16T06:16:36.803Z,8.00
2022-11-16T06:19:06.254Z,8.00
2022-11-16T06:21:34.327Z,8.10
2022-11-16T06:24:03.709Z,8.00
2022-11-16T06:26:31.787Z,8.00
2022-11-16T06:29:00.050Z,8.00
2022-11-16T06:31:28.172Z,8.00
2022-11-16T06:33:56.249Z,8.00
2022-11-16T06:36:25.684Z,8.00
2022-11-16T06:38:53.848Z,8.00
2022-11-16T06:41:21.938Z,8.00
2022-11-16T06:43:50.084Z,8.00
2022-11-16T06:46:18.160Z,8.00
2022-11-16T06:48:46.253Z,8.00
2022-11-16T06:51:14.453Z,8.00
2022-11-16T06:53:43.898Z,8.00
2022-11-16T06:56:12.609Z,8.00
2022-11-16T06:58:42.787Z,8.00
2022-11-16T07:01:11.744Z,8.00
2022-11-16T07:03:39.839Z,8.00
2022-11-16T07:06:09.078Z,8.10
2022-11-16T07:08:37.254Z,8.00
2022-11-16T07:11:07.510Z,8.00
2022-11-16T07:13:35.697Z,8.00
2022-11-16T07:16:04.487Z,8.00
2022-11-16T07:18:34.297Z,8.00
2022-11-16T07:21:07.104Z,8.00
2022-11-16T07:23:35.339Z,8.00
2022-11-16T07:26:03.591Z,8.00
2022-11-16T07:28:33.479Z,8.00
2022-11-16T07:31:02.795Z,8.00
2022-11-16T07:33:31.058Z,8.00
2022-11-16T07:36:02.387Z,8.00
2022-11-16T07:38:30.568Z,8.00
2022-11-16T07:41:01.342Z,8.00
2022-11-16T07:43:31.733Z,8.00
2022-11-16T07:48:52.674Z,8.00
2022-11-16T07:51:21.042Z,8.00
2022-11-16T07:53:49.223Z,8.00
2022-11-16T07:56:17.685Z,8.00
2022-11-16T07:58:45.786Z,8.00
2022-11-16T08:01:16.658Z,8.00
2022-11-16T08:03:45.813Z,8.00
2022-11-16T08:06:15.023Z,8.00
2022-11-16T08:08:43.182Z,8.00
2022-11-16T08:11:11.750Z,8.10
2022-11-16T08:13:40.793Z,8.10
2022-11-16T08:16:10.064Z,8.00
2022-11-16T08:18:39.629Z,8.10
2022-11-16T08:21:08.087Z,8.10
2022-11-16T08:23:36.156Z,8.10
2022-11-16T08:26:05.492Z,8.10
2022-11-16T08:28:33.842Z,8.10
2022-11-16T08:31:02.365Z,8.00
2022-11-16T08:33:30.621Z,8.00
2022-11-16T08:36:07.067Z,8.10
2022-11-16T08:38:37.749Z,8.00
2022-11-16T08:41:06.063Z,8.10
2022-11-16T08:43:34.438Z,8.10
2022-11-16T08:46:02.565Z,8.10
2022-11-16T08:48:30.803Z,8.10
2022-11-16T08:51:21.107Z,8.10
2022-11-16T08:53:49.701Z,8.10
2022-11-16T08:56:18.614Z,8.10
2022-11-16T08:58:47.359Z,8.10
2022-11-16T09:01:17.331Z,8.10
2022-11-16T09:03:45.707Z,8.10
2022-11-16T09:06:15.222Z,8.00
2022-11-16T09:08:43.938Z,8.10
2022-11-16T09:11:13.661Z,8.00
2022-11-16T09:13:41.803Z,8.00
2022-11-16T09:16:09.850Z,8.10
2022-11-16T09:18:38.097Z,8.00
2022-11-16T09:21:06.448Z,8.10
2022-11-16T09:23:36.353Z,8.00
2022-11-16T09:26:04.504Z,8.00
2022-11-16T09:28:33.095Z,8.10
2022-11-16T09:31:02.945Z,8.10
2022-11-16T09:33:31.715Z,8.10
2022-11-16T09:36:02.677Z,8.10
2022-11-16T09:38:46.835Z,8.10
2022-11-16T09:41:34.078Z,8.10
2022-11-16T09:44:06.124Z,8.10
2022-11-16T09:46:35.800Z,8.00
2022-11-16T09:49:16.891Z,8.00
2022-11-16T09:51:46.088Z,8.10
2022-11-16T09:54:15.806Z,8.10
2022-11-16T09:56:45.284Z,8.00
2022-11-16T09:59:18.287Z,8.00
2022-11-16T10:01:48.304Z,8.00
2022-11-16T10:04:19.514Z,8.00
2022-11-16T10:06:50.541Z,8.00
2022-11-16T10:09:18.654Z,8.00
2022-11-16T10:12:09.929Z,8.00
2022-11-16T10:15:04.870Z,8.00
2022-11-16T10:17:39.431Z,8.00
2022-11-16T10:20:29.271Z,8.00
2022-11-16T10:23:02.050Z,8.00
2022-11-16T10:25:31.969Z,8.00
2022-11-16T10:28:14.616Z,8.00
2022-11-16T10:30:46.223Z,8.00
2022-11-16T10:33:16.009Z,8.00
2022-11-16T10:35:45.527Z,8.00
2022-11-16T10:38:15.145Z,8.00
2022-11-16T10:40:44.377Z,8.00
2022-11-16T10:43:15.048Z,8.00
2022-11-16T10:45:46.783Z,8.00
2022-11-16T10:48:26.277Z,8.00
2022-11-16T10:50:54.403Z,8.00
2022-11-16T10:53:30.717Z,8.00
2022-11-16T10:56:14.822Z,8.00
2022-11-16T10:58:58.022Z,8.00
2022-11-16T11:01:30.587Z,8.00
2022-11-16T11:03:58.718Z,8.00
2022-11-16T11:06:27.124Z,8.00
2022-11-16T11:08:55.283Z,8.00
2022-11-16T11:11:41.262Z,8.00
2022-11-16T11:14:13.162Z,8.00
2022-11-16T11:16:41.633Z,8.00
2022-11-16T11:19:19.774Z,8.00
2022-11-16T11:21:48.044Z,7.90
2022-11-16T11:24:43.447Z,7.90
2022-11-16T11:27:05.651Z,8.00
2022-11-16T11:29:37.625Z,7.90
2022-11-16T11:32:06.593Z,8.00
2022-11-16T11:34:36.041Z,7.90
2022-11-16T11:37:04.404Z,7.90
2022-11-16T11:39:35.635Z,7.90
2022-11-16T11:42:30.946Z,7.90
2022-11-16T11:45:01.887Z,7.90
2022-11-16T11:50:46.199Z,7.90
2022-11-16T11:53:21.295Z,7.90
2022-11-16T11:55:50.101Z,7.80
2022-11-16T11:58:19.479Z,7.80
2022-11-16T12:00:51.570Z,7.80
2022-11-16T12:03:39.506Z,7.90
2022-11-16T12:06:10.035Z,7.90
2022-11-16T12:09:02.623Z,7.90
2022-11-16T12:11:34.400Z,7.80
2022-11-16T12:14:07.528Z,7.70
2022-11-16T12:16:39.674Z,7.70
2022-11-16T12:19:26.840Z,7.50
2022-11-16T12:22:01.555Z,7.40
2022-11-16T12:24:36.294Z,7.40
2022-11-16T12:27:10.882Z,7.30
2022-11-16T12:29:43.364Z,7.40
2022-11-16T12:32:30.114Z,7.40
2022-11-16T12:35:06.011Z,7.40
2022-11-16T12:37:36.645Z,7.40
2022-11-16T12:40:21.433Z,7.40
2022-11-16T12:42:51.884Z,7.30
2022-11-16T12:45:53.361Z,7.30
2022-11-16T12:48:54.508Z,7.30
2022-11-16T12:51:33.463Z,7.30
2022-11-16T12:54:27.532Z,7.20
2022-11-16T12:56:58.236Z,7.20
2022-11-16T12:59:32.493Z,7.20
2022-11-16T13:02:05.308Z,7.20
2022-11-16T13:04:36.673Z,7.20
2022-11-16T13:07:11.153Z,7.20
2022-11-16T13:09:41.121Z,7.20
2022-11-16T13:12:14.280Z,7.20
2022-11-16T13:14:44.891Z,7.20
2022-11-16T13:17:16.537Z,7.10
2022-11-16T13:19:46.437Z,7.20
2022-11-16T13:22:15.989Z,7.20
2022-11-16T13:24:48.045Z,7.10
2022-11-16T13:27:36.168Z,7.10
2022-11-16T13:30:07.122Z,7.20
2022-11-16T13:32:44.227Z,7.20
2022-11-16T13:35:15.860Z,7.20
2022-11-16T13:37:47.305Z,7.20
2022-11-16T13:40:30.783Z,7.20
2022-11-16T13:43:16.399Z,7.10
2022-11-16T13:45:45.763Z,7.10
2022-11-16T13:48:19.175Z,7.10
2022-11-16T13:50:53.326Z,7.10
2022-11-16T13:54:32.655Z,7.10
2022-11-16T13:56:17.957Z,7.10
2022-11-16T13:58:47.242Z,7.10
2022-11-16T14:01:18.094Z,7.10
2022-11-16T14:03:46.567Z,7.10
2022-11-16T14:06:51.239Z,7.20
2022-11-16T14:09:45.983Z,7.10
2022-11-16T14:12:56.913Z,7.10
2022-11-16T14:15:35.695Z,7.20
2022-11-16T14:18:31.728Z,7.20
2022-11-16T14:21:00.289Z,7.20
2022-11-16T14:23:58.502Z,7.20
2022-11-16T14:26:33.483Z,7.20
2022-11-16T14:29:26.400Z,7.20
2022-11-16T14:31:55.949Z,7.20
2022-11-16T14:34:25.377Z,7.20
2022-11-16T14:36:53.557Z,7.10
2022-11-16T14:39:37.849Z,7.10
2022-11-16T14:42:08.485Z,7.10
2022-11-16T14:44:39.395Z,7.10
2022-11-16T14:47:07.574Z,7.10
2022-11-16T14:49:36.335Z,7.10
2022-11-16T14:52:05.111Z,7.00
2022-11-16T14:54:36.530Z,7.00
2022-11-16T14:57:05.795Z,7.00
2022-11-16T14:59:35.269Z,7.00
2022-11-16T15:02:06.806Z,7.00
2022-11-16T15:04:34.867Z,7.00
2022-11-16T15:07:03.794Z,7.00
2022-11-16T15:09:32.668Z,7.00
2022-11-16T15:12:18.540Z,7.00
2022-11-16T15:14:50.155Z,7.00
2022-11-16T15:17:19.814Z,6.90
2022-11-16T15:19:55.537Z,6.90
2022-11-16T15:22:24.090Z,6.90
2022-11-16T15:24:55.994Z,6.90
2022-11-16T15:27:31.712Z,6.90
2022-11-16T15:30:02.610Z,6.90
2022-11-16T15:32:32.194Z,6.90
2022-11-16T15:35:05.168Z,6.80
2022-11-16T15:37:33.705Z,6.90
2022-11-16T15:40:03.309Z,6.80
2022-11-16T15:42:31.472Z,6.80
2022-11-16T15:45:02.044Z,6.80
2022-11-16T15:47:30.191Z,6.80
2022-11-16T15:49:58.290Z,6.80
2022-11-16T15:52:45.762Z,6.80
2022-11-16T15:55:29.030Z,6.80
2022-11-16T15:58:02.611Z,6.80
2022-11-16T16:00:32.672Z,6.80
2022-11-16T16:03:04.436Z,6.80
2022-11-16T16:05:39.753Z,6.80
2022-11-16T16:08:08.099Z,6.80
2022-11-16T16:10:36.589Z,6.80
2022-11-16T16:13:19.810Z,6.70
2022-11-16T16:15:49.226Z,6.70
2022-11-16T16:18:39.134Z,6.70
2022-11-16T16:21:07.458Z,6.60
2022-11-16T16:23:44.386Z,6.60
2022-11-16T16:26:12.442Z,6.60
2022-11-16T16:28:40.534Z,6.60
2022-11-16T16:31:10.429Z,6.60
2022-11-16T16:33:38.952Z,6.60
2022-11-16T16:36:08.100Z,6.60
2022-11-16T16:38:36.199Z,6.60
2022-11-16T16:41:05.094Z,6.60
2022-11-16T16:43:33.663Z,6.60
2022-11-16T16:46:02.072Z,6.60
2022-11-16T16:48:31.662Z,6.60
2022-11-16T16:50:59.733Z,6.60
2022-11-16T16:53:27.910Z,6.60
2022-11-16T16:55:55.986Z,6.50
2022-11-16T16:58:24.219Z,6.50
2022-11-16T17:00:56.914Z,6.60
2022-11-16T17:03:28.063Z,6.60
2022-11-16T17:06:02.543Z,6.50
2022-11-16T17:08:34.627Z,6.40
2022-11-16T17:11:02.855Z,6.40
2022-11-16T17:13:31.261Z,6.40
2022-11-16T17:15:59.847Z,6.40
2022-11-16T17:18:28.177Z,6.40
2022-11-16T17:20:56.320Z,6.40
2022-11-16T17:23:25.882Z,6.40
2022-11-16T17:25:53.995Z,6.40
2022-11-16T17:28:22.045Z,6.40
2022-11-16T17:30:50.213Z,6.40
2022-11-16T17:33:18.306Z,6.40
2022-11-16T17:35:49.235Z,6.40
2022-11-16T17:38:17.366Z,6.40
2022-11-16T17:40:46.892Z,6.40
2022-11-16T17:43:15.022Z,6.40
2022-11-16T17:45:43.128Z,6.30
2022-11-16T17:48:11.255Z,6.30
2022-11-16T17:50:39.320Z,6.30
2022-11-16T17:53:07.502Z,6.30
2022-11-16T17:55:35.568Z,6.40
2022-11-16T17:58:05.061Z,6.40
2022-11-16T18:00:33.138Z,6.30
2022-11-16T18:03:01.463Z,6.30
2022-11-16T18:05:29.803Z,6.30
2022-11-16T18:07:58.557Z,6.30
2022-11-16T18:10:26.997Z,6.20
2022-11-16T18:12:55.101Z,6.20
2022-11-16T18:15:28.998Z,6.20
2022-11-16T18:17:57.550Z,6.20
2022-11-16T18:20:27.729Z,6.10
2022-11-16T18:22:56.662Z,6.20
2022-11-16T18:25:24.932Z,6.20
2022-11-16T18:27:54.082Z,6.20
2022-11-16T18:30:22.323Z,6.10
2022-11-16T18:32:51.811Z,6.10
2022-11-16T18:35:19.923Z,6.10
2022-11-16T18:37:48.229Z,6.00
2022-11-16T18:40:16.431Z,6.00
2022-11-16T18:42:44.803Z,6.00
2022-11-16T18:45:13.058Z,6.00
2022-11-16T18:47:41.258Z,6.00
2022-11-16T18:50:18.986Z,6.00
2022-11-16T18:52:47.292Z,6.00
2022-11-16T18:55:15.483Z,6.00
2022-11-16T18:57:43.629Z,6.00
2022-11-16T19:00:15.224Z,5.90
2022-11-16T19:02:43.752Z,5.90
2022-11-16T19:05:13.275Z,5.80
2022-11-16T19:07:41.521Z,5.70
2022-11-16T19:10:11.103Z,5.70
2022-11-16T19:12:39.300Z,5.70
2022-11-16T19:15:08.305Z,5.80
2022-11-16T19:17:48.157Z,5.70
2022-11-16T19:20:27.686Z,5.70
2022-11-16T19:22:55.971Z,5.60
2022-11-16T19:25:24.075Z,5.70
2022-11-16T19:27:52.339Z,5.60
2022-11-16T19:30:20.619Z,6.00
2022-11-16T19:32:48.781Z,5.60
2022-11-16T19:35:17.088Z,5.50
2022-11-16T19:37:46.645Z,5.60
2022-11-16T19:40:14.857Z,5.60
2022-11-16T19:42:43.816Z,5.50
2022-11-16T19:45:12.591Z,5.30
2022-11-16T19:47:40.895Z,5.30
2022-11-16T19:50:11.925Z,5.10
2022-11-16T19:55:10.750Z,5.10
2022-11-16T19:57:39.060Z,5.00
2022-11-16T20:00:08.387Z,5.00
2022-11-16T20:02:38.807Z,5.10
2022-11-16T20:05:07.881Z,5.00
2022-11-16T20:07:38.869Z,5.00
2022-11-16T20:10:09.619Z,4.80
2022-11-16T20:12:37.800Z,4.90
2022-11-16T20:15:06.691Z,4.90
2022-11-16T20:17:34.962Z,4.90
2022-11-16T20:20:03.228Z,4.90
2022-11-16T20:22:31.474Z,4.80
2022-11-16T20:24:59.657Z,4.80
2022-11-16T20:27:29.230Z,4.70
2022-11-16T20:29:57.324Z,4.70
2022-11-16T20:32:25.593Z,4.80
2022-11-16T20:34:53.662Z,4.70
2022-11-16T20:37:22.030Z,4.70
2022-11-16T20:39:52.657Z,4.60
2022-11-16T20:42:20.877Z,4.60
2022-11-16T20:44:50.395Z,4.60
2022-11-16T20:47:18.597Z,4.50
2022-11-16T20:49:46.728Z,4.50
2022-11-16T20:52:14.925Z,4.50
2022-11-16T20:54:42.998Z,4.40
2022-11-16T20:57:11.152Z,4.50
2022-11-16T20:59:39.251Z,4.40
2022-11-16T21:02:11.130Z,4.40
2022-11-16T21:04:39.295Z,4.10
2022-11-16T21:07:07.729Z,4.20
2022-11-16T21:09:56.500Z,4.20
2022-11-16T21:12:42.960Z,4.10
2022-11-16T21:15:11.642Z,4.20
2022-11-16T21:17:41.152Z,4.10
2022-11-16T21:20:27.042Z,4.20
2022-11-16T21:22:56.214Z,4.20
2022-11-16T21:25:24.415Z,4.20
2022-11-16T21:27:52.523Z,4.10
2022-11-16T21:30:20.845Z,4.20
2022-11-16T21:32:50.423Z,4.20
2022-11-16T21:35:20.948Z,4.10
2022-11-16T21:37:49.167Z,4.20
2022-11-16T21:40:17.779Z,4.20
2022-11-16T21:45:15.785Z,4.00
2022-11-16T21:47:43.923Z,3.80
2022-11-16T21:53:01.835Z,4.00
2022-11-16T21:55:29.987Z,4.00
2022-11-16T21:57:58.365Z,3.90
2022-11-16T22:00:26.575Z,4.00
2022-11-16T22:02:55.117Z,4.00
2022-11-16T22:05:41.750Z,3.90
2022-11-16T22:08:11.623Z,3.90
2022-11-16T22:10:40.045Z,3.90
2022-11-16T22:13:08.287Z,3.80
2022-11-16T22:15:36.390Z,3.70
2022-11-16T22:18:04.712Z,3.60
2022-11-16T22:20:34.217Z,3.60
2022-11-16T22:23:02.390Z,3.70
2022-11-16T22:25:30.679Z,3.70
2022-11-16T22:28:19.610Z,3.50
2022-11-16T22:30:51.428Z,3.50
2022-11-16T22:33:20.388Z,3.50
2022-11-16T22:35:49.866Z,3.40
2022-11-16T22:38:18.060Z,3.40
2022-11-16T22:40:50.665Z,3.40
2022-11-16T22:43:18.943Z,3.50
2022-11-16T22:45:47.103Z,3.50
2022-11-16T22:48:15.248Z,3.40
2022-11-16T22:50:43.401Z,3.50
2022-11-16T22:53:12.969Z,3.30
2022-11-16T22:55:41.052Z,3.40
2022-11-16T22:58:09.327Z,3.50
2022-11-16T23:00:41.942Z,3.60
2022-11-16T23:03:10.639Z,3.40
2022-11-16T23:05:38.763Z,3.30
2022-11-16T23:08:06.919Z,3.30
2022-11-16T23:10:56.423Z,3.50
2022-11-16T23:13:42.323Z,3.60
2022-11-16T23:16:10.609Z,3.50
2022-11-16T23:18:38.769Z,3.50
2022-11-16T23:21:24.661Z,3.50
2022-11-16T23:24:10.306Z,3.60
2022-11-16T23:26:57.071Z,3.60
2022-11-16T23:29:25.163Z,3.50
2022-11-16T23:31:53.291Z,3.50
2022-11-16T23:34:21.431Z,3.50
2022-11-16T23:36:49.578Z,3.40
2022-11-16T23:39:17.899Z,3.40
2022-11-16T23:42:05.325Z,3.40
2022-11-16T23:44:33.470Z,3.50
2022-11-16T23:47:01.589Z,3.50
2022-11-16T23:49:29.647Z,3.50
2022-11-16T23:51:57.792Z,3.50
2022-11-16T23:54:25.937Z,3.40
2022-11-16T23:56:55.442Z,3.30
2022-11-16T23:59:23.551Z,3.40
